createdAt,value
2022-08-22T00:01:39.695Z,99841.92
2022-08-22T00:02:43.675Z,99850.78
2022-08-22T00:03:07.586Z,99851.02
2022-08-22T00:03:11.648Z,99854.59
2022-08-22T00:04:58.564Z,99845.25
2022-08-22T00:07:56.423Z,99842.36
2022-08-22T00:11:15.705Z,99844.37
2022-08-22T00:14:32.013Z,99845.32
2022-08-22T00:17:38.174Z,99844.41
2022-08-22T00:20:37.951Z,99848.25
2022-08-22T00:23:55.825Z,99846.98
2022-08-22T00:26:55.590Z,99848.09
2022-08-22T00:29:51.392Z,99847.11
2022-08-22T00:32:48.637Z,99849.86
2022-08-22T00:35:48.163Z,99847.65
2022-08-22T00:38:46.352Z,99847.89
2022-08-22T00:41:56.131Z,99849.23
2022-08-22T00:45:30.839Z,99854.36
2022-08-22T00:49:03.290Z,99849.51
2022-08-22T00:52:22.555Z,99849.38
2022-08-22T00:55:40.741Z,99849.10
2022-08-22T00:59:23.083Z,99850.58
2022-08-22T01:02:32.476Z,99848.29
2022-08-22T01:06:10.124Z,99842.79
2022-08-22T01:09:02.188Z,99842.63
2022-08-22T01:12:12.135Z,99842.47
2022-08-22T01:15:14.430Z,99842.23
2022-08-22T01:18:34.056Z,99837.19
2022-08-22T01:21:46.021Z,99834.73
2022-08-22T01:25:29.660Z,99837.92
2022-08-22T01:29:09.451Z,99838.69
2022-08-22T01:32:23.955Z,99839.55
2022-08-22T01:35:59.717Z,99845.86
2022-08-22T01:39:38.378Z,99848.98
2022-08-22T01:42:54.343Z,99848.94
2022-08-22T01:46:20.645Z,99852.84
2022-08-22T01:49:48.905Z,99852.45
2022-08-22T01:52:59.816Z,99857.42
2022-08-22T01:56:09.825Z,99859.02
2022-08-22T01:59:15.267Z,99865.11
2022-08-22T02:02:24.991Z,99866.17
2022-08-22T02:05:41.114Z,99864.43
2022-08-22T02:09:02.244Z,99871.35
2022-08-22T02:12:02.651Z,99872.85
2022-08-22T02:15:19.194Z,99872.02
2022-08-22T02:18:07.096Z,99874.06
2022-08-22T02:21:17.899Z,99870.13
2022-08-22T02:24:50.198Z,99870.77
2022-08-22T02:27:54.083Z,99874.06
2022-08-22T02:31:43.939Z,99879.69
2022-08-22T02:35:14.526Z,99882.13
2022-08-22T02:38:23.115Z,99888.13
2022-08-22T02:41:33.069Z,99884.52
2022-08-22T02:44:33.305Z,99883.65
2022-08-22T02:47:35.501Z,99881.56
2022-08-22T02:50:45.639Z,99885.77
2022-08-22T02:53:44.858Z,99886.99
2022-08-22T02:56:49.321Z,99888.27
2022-08-22T03:00:31.484Z,99885.42
2022-08-22T03:03:31.867Z,99881.39
2022-08-22T03:06:45.797Z,99882.70
2022-08-22T03:09:49.039Z,99885.38
2022-08-22T03:13:14.274Z,99885.73
2022-08-22T03:16:25.930Z,99884.52
2022-08-22T03:20:00.201Z,99881.36
2022-08-22T03:23:11.536Z,99880.80
2022-08-22T03:26:07.800Z,99879.71
2022-08-22T03:29:10.580Z,99878.04
2022-08-22T03:32:23.556Z,99880.71
2022-08-22T03:35:42.602Z,99878.58
2022-08-22T03:38:33.370Z,99878.40
2022-08-22T03:41:50.179Z,99883.20
2022-08-22T03:45:15.372Z,99880.34
2022-08-22T03:48:25.017Z,99882.84
2022-08-22T03:51:31.445Z,99882.67
2022-08-22T03:54:30.495Z,99886.20
2022-08-22T03:57:24.982Z,99883.70
2022-08-22T04:00:22.208Z,99886.02
2022-08-22T04:03:51.074Z,99889.09
2022-08-22T04:06:57.080Z,99892.34
2022-08-22T04:10:07.271Z,99894.70
2022-08-22T04:13:28.073Z,99895.60
2022-08-22T04:17:06.443Z,99892.31
2022-08-22T04:20:44.388Z,99900.15
2022-08-22T04:23:56.781Z,99896.84
2022-08-22T04:27:12.415Z,99894.95
2022-08-22T04:30:20.784Z,99897.91
2022-08-22T04:33:48.396Z,99895.91
2022-08-22T04:37:00.074Z,99898.63
2022-08-22T04:40:03.119Z,99901.89
2022-08-22T04:43:08.856Z,99901.88
2022-08-22T04:46:37.861Z,99903.70
2022-08-22T04:49:56.559Z,99905.61
2022-08-22T04:53:14.146Z,99905.23
2022-08-22T04:56:33.148Z,99908.48
2022-08-22T04:59:21.385Z,99909.85
2022-08-22T05:02:19.885Z,99915.59
2022-08-22T05:05:24.715Z,99911.39
2022-08-22T05:08:20.447Z,99915.00
2022-08-22T05:11:11.649Z,99912.95
2022-08-22T05:14:09.754Z,99916.56
2022-08-22T05:16:59.797Z,99916.52
2022-08-22T05:19:54.155Z,99920.94
2022-08-22T05:22:48.429Z,99923.81
2022-08-22T05:25:41.053Z,99928.05
2022-08-22T05:28:34.799Z,99928.16
2022-08-22T05:31:49.903Z,99931.55
2022-08-22T05:34:42.325Z,99932.33
2022-08-22T05:37:52.399Z,99933.04
2022-08-22T05:40:43.163Z,99932.48
2022-08-22T05:43:35.511Z,99934.52
2022-08-22T05:46:43.888Z,99932.52
2022-08-22T05:50:08.510Z,99939.91
2022-08-22T05:53:27.699Z,99944.08
2022-08-22T05:57:01.737Z,99946.13
2022-08-22T06:00:09.023Z,99951.09
2022-08-22T06:03:18.154Z,99958.05
2022-08-22T06:06:16.650Z,99956.59
2022-08-22T06:09:17.681Z,99958.23
2022-08-22T06:12:21.655Z,99959.19
2022-08-22T06:15:34.717Z,99963.29
2022-08-22T06:18:27.850Z,99961.05
2022-08-22T06:21:33.699Z,99959.54
2022-08-22T06:24:28.163Z,99959.36
2022-08-22T06:27:21.258Z,99961.05
2022-08-22T06:30:14.545Z,99961.96
2022-08-22T06:33:12.403Z,99955.13
2022-08-22T06:36:26.011Z,99958.77
2022-08-22T06:39:33.000Z,99959.48
2022-08-22T06:42:33.074Z,99956.54
2022-08-22T06:45:33.123Z,99955.02
2022-08-22T06:48:24.344Z,99952.70
2022-08-22T06:51:14.063Z,99952.84
2022-08-22T06:54:05.635Z,99955.19
2022-08-22T06:56:55.757Z,99945.55
2022-08-22T06:59:44.140Z,99946.98
2022-08-22T07:02:48.341Z,99947.45
2022-08-22T07:05:41.234Z,99949.52
2022-08-22T07:08:37.159Z,99949.13
2022-08-22T07:11:39.674Z,99945.77
2022-08-22T07:14:43.386Z,99941.30
2022-08-22T07:17:58.005Z,99943.27
2022-08-22T07:20:56.519Z,99939.38
2022-08-22T07:23:48.317Z,99945.21
2022-08-22T07:27:28.350Z,99942.65
2022-08-22T07:30:27.983Z,99941.80
2022-08-22T07:33:48.644Z,99946.21
2022-08-22T07:37:22.048Z,99941.35
2022-08-22T07:40:09.687Z,99939.76
2022-08-22T07:43:03.522Z,99941.90
2022-08-22T07:46:07.140Z,99939.06
2022-08-22T07:49:14.789Z,99933.52
2022-08-22T07:52:12.216Z,99930.30
2022-08-22T07:55:26.032Z,99930.74
2022-08-22T07:58:16.215Z,99932.42
2022-08-22T08:01:04.167Z,99933.11
2022-08-22T08:04:13.327Z,99937.89
2022-08-22T08:07:08.503Z,99938.20
2022-08-22T08:10:07.969Z,99940.03
2022-08-22T08:13:05.082Z,99942.20
2022-08-22T08:15:53.707Z,99939.86
2022-08-22T08:18:41.533Z,99937.09
2022-08-22T08:21:54.417Z,99940.97
2022-08-22T08:24:44.774Z,99936.80
2022-08-22T08:27:57.103Z,99937.17
2022-08-22T08:31:20.565Z,99947.96
2022-08-22T08:34:17.643Z,99948.35
2022-08-22T08:37:26.466Z,99946.36
2022-08-22T08:40:33.026Z,99948.45
2022-08-22T08:43:57.278Z,99950.92
2022-08-22T08:47:13.080Z,99952.48
2022-08-22T08:50:45.023Z,99954.38
2022-08-22T08:54:09.530Z,99952.50
2022-08-22T08:57:33.111Z,99954.27
2022-08-22T09:00:57.080Z,99955.83
2022-08-22T09:04:23.666Z,99952.08
2022-08-22T09:07:51.792Z,99948.64
2022-08-22T09:11:09.777Z,99950.06
2022-08-22T09:14:26.325Z,99947.71
2022-08-22T09:17:39.059Z,99945.02
2022-08-22T09:21:01.632Z,99938.24
2022-08-22T09:24:21.575Z,99945.02
2022-08-22T09:27:32.209Z,99941.14
2022-08-22T09:34:23.771Z,99946.11
2022-08-22T09:37:40.724Z,99948.48
2022-08-22T09:40:15.634Z,99943.24
2022-08-22T09:40:39.596Z,99951.38
2022-08-22T09:44:09.055Z,99951.52
2022-08-22T09:47:50.425Z,99953.11
2022-08-22T09:51:32.182Z,99952.44
2022-08-22T09:54:49.682Z,99954.98
2022-08-22T09:58:23.868Z,99957.55
2022-08-22T10:01:18.727Z,99964.64
2022-08-22T10:05:10.087Z,99964.98
2022-08-22T10:08:36.444Z,99968.95
2022-08-22T10:11:42.392Z,99967.98
2022-08-22T10:15:16.950Z,99965.34
2022-08-22T10:18:17.909Z,99967.80
2022-08-22T10:21:08.742Z,99963.17
2022-08-22T10:24:43.647Z,99968.23
2022-08-22T10:27:42.913Z,99967.70
2022-08-22T10:31:06.435Z,99964.48
2022-08-22T10:34:21.769Z,99961.46
2022-08-22T10:37:58.452Z,99967.30
2022-08-22T10:40:58.270Z,99971.44
2022-08-22T10:44:18.177Z,99969.11
2022-08-22T10:47:19.043Z,99973.69
2022-08-22T10:50:20.191Z,99972.06
2022-08-22T10:53:46.408Z,99971.11
2022-08-22T10:56:46.113Z,99967.09
2022-08-22T10:59:44.200Z,99972.34
2022-08-22T11:03:02.498Z,99973.40
2022-08-22T11:05:57.365Z,99977.16
2022-08-22T11:09:13.191Z,99974.34
2022-08-22T11:12:23.627Z,99974.85
2022-08-22T11:15:55.299Z,99968.40
2022-08-22T11:19:24.895Z,99970.29
2022-08-22T11:22:56.251Z,99969.56
2022-08-22T11:26:07.898Z,99979.48
2022-08-22T11:29:41.230Z,99975.93
2022-08-22T11:32:50.688Z,99973.13
2022-08-22T11:35:57.313Z,99971.98
2022-08-22T11:39:18.042Z,99969.55
2022-08-22T11:42:29.630Z,99974.93
2022-08-22T11:45:25.398Z,99974.02
2022-08-22T11:48:39.230Z,99974.31
2022-08-22T11:52:06.324Z,99974.70
2022-08-22T11:55:20.170Z,99976.06
2022-08-22T11:59:01.461Z,99973.13
2022-08-22T12:02:00.531Z,99977.11
2022-08-22T12:04:55.749Z,99978.94
2022-08-22T12:07:56.925Z,99982.41
2022-08-22T12:11:27.402Z,99979.05
2022-08-22T12:15:09.100Z,99979.27
2022-08-22T12:18:54.078Z,99982.06
2022-08-22T12:22:38.916Z,99987.00
2022-08-22T12:25:53.915Z,99983.11
2022-08-22T12:29:15.509Z,99983.15
2022-08-22T12:32:16.343Z,99972.36
2022-08-22T12:35:30.527Z,99974.80
2022-08-22T12:38:40.731Z,99980.33
2022-08-22T12:41:48.294Z,99984.49
2022-08-22T12:45:30.493Z,99984.83
2022-08-22T12:48:39.620Z,99982.27
2022-08-22T12:52:25.176Z,99976.71
2022-08-22T12:55:25.340Z,99975.92
2022-08-22T12:58:43.040Z,99978.65
2022-08-22T13:01:43.202Z,99979.72
2022-08-22T13:04:36.151Z,99974.79
2022-08-22T13:07:40.014Z,99970.58
2022-08-22T13:10:48.495Z,99974.75
2022-08-22T13:13:56.372Z,99970.65
2022-08-22T13:16:50.966Z,99972.06
2022-08-22T13:19:51.975Z,99974.71
2022-08-22T13:22:45.551Z,99973.69
2022-08-22T13:26:00.892Z,99974.55
2022-08-22T13:29:24.099Z,99974.41
2022-08-22T13:32:37.555Z,99981.20
2022-08-22T13:35:45.445Z,99985.08
2022-08-22T13:38:54.892Z,99987.41
2022-08-22T13:42:04.594Z,99988.34
2022-08-22T13:45:11.497Z,99989.51
2022-08-22T13:48:13.287Z,99985.95
2022-08-22T13:51:36.036Z,99987.78
2022-08-22T13:54:26.959Z,99995.66
2022-08-22T13:57:25.423Z,99998.84
2022-08-22T14:00:28.799Z,100004.59
2022-08-22T14:03:29.028Z,100006.55
2022-08-22T14:06:35.287Z,100004.33
2022-08-22T14:10:02.626Z,100005.73
2022-08-22T14:12:57.266Z,100006.42
2022-08-22T14:15:46.379Z,100008.81
2022-08-22T14:18:45.494Z,100011.45
2022-08-22T14:21:40.927Z,100004.73
2022-08-22T14:24:55.890Z,100003.32
2022-08-22T14:27:51.107Z,100001.52
2022-08-22T14:31:04.271Z,100003.99
2022-08-22T14:33:57.419Z,100000.45
2022-08-22T14:37:02.829Z,99999.95
2022-08-22T14:40:02.332Z,100001.38
2022-08-22T14:43:07.943Z,100004.30
2022-08-22T14:46:07.299Z,100008.70
2022-08-22T14:49:21.012Z,100006.91
2022-08-22T14:52:48.692Z,100011.17
2022-08-22T14:55:38.336Z,100013.94
2022-08-22T14:58:28.703Z,100018.03
2022-08-22T15:01:25.333Z,100015.42
2022-08-22T15:04:23.445Z,100017.64
2022-08-22T15:07:22.139Z,100018.98
2022-08-22T15:10:27.780Z,100018.16
2022-08-22T15:13:25.167Z,100019.48
2022-08-22T15:16:24.820Z,100020.52
2022-08-22T15:19:35.789Z,100020.89
2022-08-22T15:22:27.969Z,100023.67
2022-08-22T15:25:40.901Z,100023.48
2022-08-22T15:28:33.723Z,100023.18
2022-08-22T15:32:03.894Z,100020.41
2022-08-22T15:34:53.636Z,100016.02
2022-08-22T15:38:02.111Z,100015.66
2022-08-22T15:40:50.107Z,100014.73
2022-08-22T15:43:47.165Z,100010.56
2022-08-22T15:46:44.792Z,100013.31
2022-08-22T15:49:51.180Z,100009.80
2022-08-22T15:53:19.188Z,100007.98
2022-08-22T15:56:25.358Z,100007.35
2022-08-22T15:59:54.487Z,100006.85
2022-08-22T16:03:07.693Z,100008.45
2022-08-22T16:06:07.482Z,100007.61
2022-08-22T16:08:56.007Z,100008.60
2022-08-22T16:11:54.086Z,100005.73
2022-08-22T16:14:52.404Z,100008.17
2022-08-22T16:17:45.993Z,100007.58
2022-08-22T16:20:50.148Z,100007.69
2022-08-22T16:23:51.778Z,100006.05
2022-08-22T16:26:44.876Z,100004.39
2022-08-22T16:29:42.425Z,100002.52
2022-08-22T16:32:35.193Z,100005.27
2022-08-22T16:36:17.350Z,100005.66
2022-08-22T16:39:22.751Z,100005.46
2022-08-22T16:42:21.979Z,100004.78
2022-08-22T16:45:44.205Z,100000.30
2022-08-22T16:48:39.618Z,100000.34
2022-08-22T16:51:33.370Z,100000.47
2022-08-22T16:54:47.872Z,99999.04
2022-08-22T16:58:05.090Z,100003.59
2022-08-22T17:01:15.462Z,100001.48
2022-08-22T17:05:02.453Z,100005.25
2022-08-22T17:08:47.483Z,100007.73
2022-08-22T17:12:16.153Z,100007.88
2022-08-22T17:15:58.102Z,100009.11
2022-08-22T17:19:00.082Z,100019.59
2022-08-22T17:22:04.825Z,100019.83
2022-08-22T17:25:19.086Z,100025.23
2022-08-22T17:28:21.293Z,100026.09
2022-08-22T17:31:36.912Z,100027.27
2022-08-22T17:34:50.628Z,100021.49
2022-08-22T17:37:50.457Z,100019.49
2022-08-22T17:41:37.494Z,100024.36
2022-08-22T17:44:56.989Z,100025.30
2022-08-22T17:48:22.376Z,100027.61
2022-08-22T17:51:29.656Z,100027.91
2022-08-22T17:55:05.434Z,100024.58
2022-08-22T17:58:37.496Z,100027.74
2022-08-22T18:01:48.451Z,100033.23
2022-08-22T18:04:52.359Z,100037.29
2022-08-22T18:07:58.929Z,100041.23
2022-08-22T18:11:12.618Z,100042.39
2022-08-22T18:14:32.180Z,100042.73
2022-08-22T18:17:35.917Z,100042.55
2022-08-22T18:21:08.499Z,100053.61
2022-08-22T18:24:16.100Z,100051.48
2022-08-22T18:27:34.966Z,100056.63
2022-08-22T18:30:37.339Z,100053.80
2022-08-22T18:33:55.462Z,100057.73
2022-08-22T18:37:01.193Z,100059.48
2022-08-22T18:40:01.484Z,100058.66
2022-08-22T18:43:14.903Z,100060.34
2022-08-22T18:46:30.021Z,100062.58
2022-08-22T18:49:21.024Z,100066.60
2022-08-22T18:52:13.879Z,100070.28
2022-08-22T18:55:38.695Z,100070.86
2022-08-22T18:58:45.942Z,100079.91
2022-08-22T19:02:01.452Z,100079.59
2022-08-22T19:05:21.576Z,100076.80
2022-08-22T19:08:38.888Z,100077.38
2022-08-22T19:12:10.359Z,100081.78
2022-08-22T19:15:39.319Z,100078.58
2022-08-22T19:18:54.767Z,100081.09
2022-08-22T19:22:22.642Z,100080.84
2022-08-22T19:25:27.442Z,100076.56
2022-08-22T19:28:15.707Z,100074.41
2022-08-22T19:31:22.616Z,100075.42
2022-08-22T19:34:26.104Z,100077.98
2022-08-22T19:37:32.321Z,100078.48
2022-08-22T19:40:58.272Z,100079.12
2022-08-22T19:43:46.978Z,100079.27
2022-08-22T19:46:40.835Z,100082.65
2022-08-22T19:49:50.337Z,100085.50
2022-08-22T19:53:18.635Z,100084.33
2022-08-22T19:56:50.788Z,100086.39
2022-08-22T19:59:50.788Z,100085.25
2022-08-22T20:03:02.032Z,100086.67
2022-08-22T20:06:03.419Z,100081.05
2022-08-22T20:09:17.667Z,100084.52
2022-08-22T20:13:03.297Z,100078.63
2022-08-22T20:16:21.428Z,100080.73
2022-08-22T20:19:10.696Z,100078.88
2022-08-22T20:22:02.606Z,100077.51
2022-08-22T20:25:41.573Z,100073.77
2022-08-22T20:28:41.128Z,100075.16
2022-08-22T20:31:37.286Z,100076.74
2022-08-22T20:34:39.630Z,100079.64
2022-08-22T20:38:03.357Z,100080.25
2022-08-22T20:41:10.681Z,100074.14
2022-08-22T20:44:20.935Z,100064.14
2022-08-22T20:47:22.438Z,100068.09
2022-08-22T20:50:12.311Z,100072.02
2022-08-22T20:53:15.612Z,100065.79
2022-08-22T20:56:07.305Z,100068.56
2022-08-22T20:58:59.278Z,100067.44
2022-08-22T21:01:57.834Z,100064.36
2022-08-22T21:04:52.055Z,100068.80
2022-08-22T21:07:48.145Z,100065.81
2022-08-22T21:10:57.619Z,100061.77
2022-08-22T21:13:45.952Z,100059.55
2022-08-22T21:16:34.058Z,100056.76
2022-08-22T21:19:30.312Z,100056.85
2022-08-22T21:22:33.059Z,100059.80
2022-08-22T21:25:20.862Z,100062.16
2022-08-22T21:28:08.556Z,100059.48
2022-08-22T21:30:57.405Z,100054.51
2022-08-22T21:33:49.991Z,100050.90
2022-08-22T21:36:39.003Z,100048.91
2022-08-22T21:39:32.992Z,100050.42
2022-08-22T21:42:31.481Z,100051.70
2022-08-22T21:45:31.847Z,100049.10
2022-08-22T21:49:04.184Z,100048.28
2022-08-22T21:51:53.160Z,100040.04
2022-08-22T21:54:41.452Z,100042.02
2022-08-22T21:57:35.906Z,100039.42
2022-08-22T22:00:57.452Z,100035.89
2022-08-22T22:03:45.736Z,100033.05
2022-08-22T22:06:35.458Z,100029.91
2022-08-22T22:09:23.362Z,100032.41
2022-08-22T22:12:12.727Z,100034.26
2022-08-22T22:15:01.117Z,100042.77
2022-08-22T22:17:50.348Z,100039.27
2022-08-22T22:20:39.156Z,100032.52
2022-08-22T22:23:27.993Z,100031.95
2022-08-22T22:26:16.991Z,100033.80
2022-08-22T22:29:05.188Z,100033.19
2022-08-22T22:31:53.360Z,100032.20
2022-08-22T22:34:42.068Z,100028.49
2022-08-22T22:37:30.436Z,100024.23
2022-08-22T22:40:21.075Z,100020.77
2022-08-22T22:43:11.328Z,100023.40
2022-08-22T22:45:59.478Z,100025.65
2022-08-22T22:48:48.281Z,100022.46
2022-08-22T22:51:36.045Z,100022.19
2022-08-22T22:54:27.030Z,100011.58
2022-08-22T22:57:19.924Z,100005.34
2022-08-22T23:00:15.160Z,100003.80
2022-08-22T23:03:06.536Z,100000.07
2022-08-22T23:05:55.334Z,100006.77
2022-08-22T23:08:43.584Z,100005.48
2022-08-22T23:11:32.695Z,100004.77
2022-08-22T23:14:21.231Z,100001.89
2022-08-22T23:17:09.114Z,99998.68
2022-08-22T23:19:56.653Z,99991.98
2022-08-22T23:22:46.283Z,99992.49
2022-08-22T23:25:34.687Z,99992.69
2022-08-22T23:28:22.771Z,99998.29
2022-08-22T23:31:15.570Z,99996.25
2022-08-22T23:34:09.898Z,99988.13
2022-08-22T23:37:02.971Z,99985.36
2022-08-22T23:39:54.693Z,99981.20
2022-08-22T23:42:42.829Z,99983.35
2022-08-22T23:45:30.533Z,99981.23
2022-08-22T23:48:18.466Z,99981.61
2022-08-22T23:51:07.343Z,99977.91
2022-08-22T23:53:58.014Z,99979.08
2022-08-22T23:56:57.202Z,99988.69
2022-08-22T23:59:46.342Z,99991.16
